sensor_id;sensor_type;location;lat;lon;timestamp;P1;durP1;ratioP1;P2;durP2;ratioP2
32734;SDS011;19112;51.076;3.706;2024-02-16T00:01:46;10.90;;;4.00;;
32734;SDS011;19112;51.076;3.706;2024-02-16T00:04:12;15.68;;;4.28;;
32734;SDS011;19112;51.076;3.706;2024-02-16T00:06:38;12.07;;;4.13;;
32734;SDS011;19112;51.076;3.706;2024-02-16T00:09:03;14.48;;;4.15;;
32734;SDS011;19112;51.076;3.706;2024-02-16T00:11:31;14.95;;;4.63;;
32734;SDS011;19112;51.076;3.706;2024-02-16T00:13:58;13.63;;;4.40;;
32734;SDS011;19112;51.076;3.706;2024-02-16T00:16:26;12.95;;;4.28;;
32734;SDS011;19112;51.076;3.706;2024-02-16T00:18:53;13.88;;;4.78;;
32734;SDS011;19112;51.076;3.706;2024-02-16T00:21:18;16.00;;;4.40;;
32734;SDS011;19112;51.076;3.706;2024-02-16T00:23:45;13.73;;;4.10;;
32734;SDS011;19112;51.076;3.706;2024-02-16T00:26:11;13.88;;;4.40;;
32734;SDS011;19112;51.076;3.706;2024-02-16T00:28:38;11.40;;;4.20;;
32734;SDS011;19112;51.076;3.706;2024-02-16T00:31:04;11.38;;;4.05;;
32734;SDS011;19112;51.076;3.706;2024-02-16T00:33:31;12.05;;;3.95;;
32734;SDS011;19112;51.076;3.706;2024-02-16T00:35:59;11.90;;;3.78;;
32734;SDS011;19112;51.076;3.706;2024-02-16T00:38:25;12.50;;;4.10;;
32734;SDS011;19112;51.076;3.706;2024-02-16T00:40:50;10.65;;;3.60;;
32734;SDS011;19112;51.076;3.706;2024-02-16T00:43:16;13.02;;;4.10;;
32734;SDS011;19112;51.076;3.706;2024-02-16T00:45:43;12.27;;;3.95;;
32734;SDS011;19112;51.076;3.706;2024-02-16T00:48:10;11.35;;;4.68;;
32734;SDS011;19112;51.076;3.706;2024-02-16T00:50:36;11.52;;;4.13;;
32734;SDS011;19112;51.076;3.706;2024-02-16T00:53:02;12.35;;;3.92;;
32734;SDS011;19112;51.076;3.706;2024-02-16T00:55:29;10.50;;;4.10;;
32734;SDS011;19112;51.076;3.706;2024-02-16T00:57:55;13.25;;;4.60;;
32734;SDS011;19112;51.076;3.706;2024-02-16T01:00:21;10.88;;;3.92;;
32734;SDS011;19112;51.076;3.706;2024-02-16T01:02:49;9.75;;;4.03;;
32734;SDS011;19112;51.076;3.706;2024-02-16T01:05:18;10.73;;;3.83;;
32734;SDS011;19112;51.076;3.706;2024-02-16T01:07:46;14.73;;;4.10;;
32734;SDS011;19112;51.076;3.706;2024-02-16T01:10:12;13.52;;;4.18;;
32734;SDS011;19112;51.076;3.706;2024-02-16T01:12:38;8.80;;;3.60;;
32734;SDS011;19112;51.076;3.706;2024-02-16T01:15:05;9.48;;;3.88;;
32734;SDS011;19112;51.076;3.706;2024-02-16T01:17:31;13.07;;;4.25;;
32734;SDS011;19112;51.076;3.706;2024-02-16T01:19:58;11.85;;;4.50;;
32734;SDS011;19112;51.076;3.706;2024-02-16T01:22:24;11.77;;;4.07;;
32734;SDS011;19112;51.076;3.706;2024-02-16T01:24:54;12.60;;;4.03;;
32734;SDS011;19112;51.076;3.706;2024-02-16T01:27:20;12.60;;;4.50;;
32734;SDS011;19112;51.076;3.706;2024-02-16T01:29:46;12.13;;;4.20;;
32734;SDS011;19112;51.076;3.706;2024-02-16T01:32:12;13.88;;;3.97;;
32734;SDS011;19112;51.076;3.706;2024-02-16T01:34:39;9.88;;;3.63;;
32734;SDS011;19112;51.076;3.706;2024-02-16T01:37:04;9.88;;;3.92;;
32734;SDS011;19112;51.076;3.706;2024-02-16T01:39:30;14.73;;;4.22;;
32734;SDS011;19112;51.076;3.706;2024-02-16T01:41:57;11.63;;;3.80;;
32734;SDS011;19112;51.076;3.706;2024-02-16T01:44:23;13.40;;;4.57;;
32734;SDS011;19112;51.076;3.706;2024-02-16T01:46:49;12.18;;;4.00;;
32734;SDS011;19112;51.076;3.706;2024-02-16T01:49:15;9.55;;;3.80;;
32734;SDS011;19112;51.076;3.706;2024-02-16T01:51:42;12.25;;;4.07;;
32734;SDS011;19112;51.076;3.706;2024-02-16T01:54:11;10.50;;;3.88;;
32734;SDS011;19112;51.076;3.706;2024-02-16T01:56:37;11.32;;;3.88;;
32734;SDS011;19112;51.076;3.706;2024-02-16T01:59:06;13.88;;;4.38;;
32734;SDS011;19112;51.076;3.706;2024-02-16T02:01:31;11.55;;;4.00;;
32734;SDS011;19112;51.076;3.706;2024-02-16T02:03:57;11.25;;;4.35;;
32734;SDS011;19112;51.076;3.706;2024-02-16T02:06:24;9.73;;;4.13;;
32734;SDS011;19112;51.076;3.706;2024-02-16T02:08:50;10.95;;;4.15;;
32734;SDS011;19112;51.076;3.706;2024-02-16T02:11:16;11.00;;;4.53;;
32734;SDS011;19112;51.076;3.706;2024-02-16T02:13:45;13.50;;;4.47;;
32734;SDS011;19112;51.076;3.706;2024-02-16T02:16:11;11.88;;;4.32;;
32734;SDS011;19112;51.076;3.706;2024-02-16T02:18:37;12.15;;;4.10;;
32734;SDS011;19112;51.076;3.706;2024-02-16T02:21:04;11.55;;;4.47;;
32734;SDS011;19112;51.076;3.706;2024-02-16T02:23:32;17.45;;;5.63;;
32734;SDS011;19112;51.076;3.706;2024-02-16T02:25:59;15.05;;;4.68;;
32734;SDS011;19112;51.076;3.706;2024-02-16T02:28:25;13.23;;;4.75;;
32734;SDS011;19112;51.076;3.706;2024-02-16T02:30:52;15.32;;;4.63;;
32734;SDS011;19112;51.076;3.706;2024-02-16T02:33:19;12.73;;;4.43;;
32734;SDS011;19112;51.076;3.706;2024-02-16T02:35:45;11.77;;;4.15;;
32734;SDS011;19112;51.076;3.706;2024-02-16T02:38:15;12.38;;;4.20;;
32734;SDS011;19112;51.076;3.706;2024-02-16T02:43:12;13.13;;;4.13;;
32734;SDS011;19112;51.076;3.706;2024-02-16T02:45:40;12.57;;;4.38;;
32734;SDS011;19112;51.076;3.706;2024-02-16T02:48:06;11.88;;;4.43;;
32734;SDS011;19112;51.076;3.706;2024-02-16T02:50:33;12.20;;;4.45;;
32734;SDS011;19112;51.076;3.706;2024-02-16T02:53:00;12.40;;;4.28;;
32734;SDS011;19112;51.076;3.706;2024-02-16T02:55:26;12.75;;;4.50;;
32734;SDS011;19112;51.076;3.706;2024-02-16T02:57:54;11.32;;;4.03;;
32734;SDS011;19112;51.076;3.706;2024-02-16T03:00:20;12.75;;;4.40;;
32734;SDS011;19112;51.076;3.706;2024-02-16T03:02:46;11.85;;;3.92;;
32734;SDS011;19112;51.076;3.706;2024-02-16T03:05:12;11.73;;;4.15;;
32734;SDS011;19112;51.076;3.706;2024-02-16T03:07:39;11.07;;;4.20;;
32734;SDS011;19112;51.076;3.706;2024-02-16T03:10:06;10.65;;;4.32;;
32734;SDS011;19112;51.076;3.706;2024-02-16T03:12:38;13.15;;;4.57;;
32734;SDS011;19112;51.076;3.706;2024-02-16T03:15:04;12.52;;;4.53;;
32734;SDS011;19112;51.076;3.706;2024-02-16T03:17:30;14.02;;;4.22;;
32734;SDS011;19112;51.076;3.706;2024-02-16T03:19:59;11.93;;;4.53;;
32734;SDS011;19112;51.076;3.706;2024-02-16T03:22:26;12.50;;;4.22;;
32734;SDS011;19112;51.076;3.706;2024-02-16T03:24:56;13.43;;;4.55;;
32734;SDS011;19112;51.076;3.706;2024-02-16T03:27:23;11.90;;;4.40;;
32734;SDS011;19112;51.076;3.706;2024-02-16T03:29:50;10.40;;;4.10;;
32734;SDS011;19112;51.076;3.706;2024-02-16T03:32:16;12.30;;;4.00;;
32734;SDS011;19112;51.076;3.706;2024-02-16T03:34:42;12.60;;;4.57;;
32734;SDS011;19112;51.076;3.706;2024-02-16T03:37:08;12.05;;;4.03;;
32734;SDS011;19112;51.076;3.706;2024-02-16T03:39:34;14.38;;;4.65;;
32734;SDS011;19112;51.076;3.706;2024-02-16T03:42:01;8.10;;;3.80;;
32734;SDS011;19112;51.076;3.706;2024-02-16T03:44:27;11.88;;;4.10;;
32734;SDS011;19112;51.076;3.706;2024-02-16T03:46:53;10.77;;;4.15;;
32734;SDS011;19112;51.076;3.706;2024-02-16T03:49:19;13.00;;;4.28;;
32734;SDS011;19112;51.076;3.706;2024-02-16T03:51:47;12.27;;;4.00;;
32734;SDS011;19112;51.076;3.706;2024-02-16T03:54:12;12.60;;;3.88;;
32734;SDS011;19112;51.076;3.706;2024-02-16T03:56:40;12.50;;;4.35;;
32734;SDS011;19112;51.076;3.706;2024-02-16T03:59:06;13.02;;;4.15;;
32734;SDS011;19112;51.076;3.706;2024-02-16T04:01:33;9.88;;;4.60;;
32734;SDS011;19112;51.076;3.706;2024-02-16T04:03:59;15.13;;;4.32;;
32734;SDS011;19112;51.076;3.706;2024-02-16T04:06:24;12.05;;;4.15;;
32734;SDS011;19112;51.076;3.706;2024-02-16T04:08:50;12.57;;;4.10;;
32734;SDS011;19112;51.076;3.706;2024-02-16T04:11:17;9.25;;;3.90;;
32734;SDS011;19112;51.076;3.706;2024-02-16T04:13:44;13.60;;;4.68;;
32734;SDS011;19112;51.076;3.706;2024-02-16T04:16:10;12.70;;;4.50;;
32734;SDS011;19112;51.076;3.706;2024-02-16T04:18:36;16.08;;;4.80;;
32734;SDS011;19112;51.076;3.706;2024-02-16T04:21:02;13.65;;;4.53;;
32734;SDS011;19112;51.076;3.706;2024-02-16T04:23:29;11.98;;;4.00;;
32734;SDS011;19112;51.076;3.706;2024-02-16T04:25:54;11.63;;;4.10;;
32734;SDS011;19112;51.076;3.706;2024-02-16T04:28:21;15.85;;;4.90;;
32734;SDS011;19112;51.076;3.706;2024-02-16T04:30:48;13.10;;;4.32;;
32734;SDS011;19112;51.076;3.706;2024-02-16T04:33:13;13.35;;;4.30;;
32734;SDS011;19112;51.076;3.706;2024-02-16T04:35:40;13.38;;;4.47;;
32734;SDS011;19112;51.076;3.706;2024-02-16T04:38:07;12.50;;;4.50;;
32734;SDS011;19112;51.076;3.706;2024-02-16T04:40:35;13.75;;;4.55;;
32734;SDS011;19112;51.076;3.706;2024-02-16T04:43:08;13.82;;;4.35;;
32734;SDS011;19112;51.076;3.706;2024-02-16T04:45:35;11.73;;;3.92;;
32734;SDS011;19112;51.076;3.706;2024-02-16T04:48:04;12.82;;;4.25;;
32734;SDS011;19112;51.076;3.706;2024-02-16T04:50:37;13.80;;;4.57;;
32734;SDS011;19112;51.076;3.706;2024-02-16T04:53:03;13.63;;;4.63;;
32734;SDS011;19112;51.076;3.706;2024-02-16T04:55:30;16.35;;;4.78;;
32734;SDS011;19112;51.076;3.706;2024-02-16T04:57:56;12.35;;;4.57;;
32734;SDS011;19112;51.076;3.706;2024-02-16T05:00:26;13.63;;;4.35;;
32734;SDS011;19112;51.076;3.706;2024-02-16T05:02:53;12.75;;;4.45;;
32734;SDS011;19112;51.076;3.706;2024-02-16T05:05:19;12.68;;;4.45;;
32734;SDS011;19112;51.076;3.706;2024-02-16T05:07:48;12.07;;;5.07;;
32734;SDS011;19112;51.076;3.706;2024-02-16T05:10:15;13.00;;;4.45;;
32734;SDS011;19112;51.076;3.706;2024-02-16T05:12:41;14.52;;;4.35;;
32734;SDS011;19112;51.076;3.706;2024-02-16T05:15:08;12.57;;;4.57;;
32734;SDS011;19112;51.076;3.706;2024-02-16T05:17:34;16.55;;;4.78;;
32734;SDS011;19112;51.076;3.706;2024-02-16T05:20:00;15.05;;;4.75;;
32734;SDS011;19112;51.076;3.706;2024-02-16T05:22:25;16.98;;;4.47;;
32734;SDS011;19112;51.076;3.706;2024-02-16T05:24:51;14.55;;;4.40;;
32734;SDS011;19112;51.076;3.706;2024-02-16T05:27:17;11.13;;;4.55;;
32734;SDS011;19112;51.076;3.706;2024-02-16T05:29:44;14.75;;;4.75;;
32734;SDS011;19112;51.076;3.706;2024-02-16T05:32:15;10.00;;;4.55;;
32734;SDS011;19112;51.076;3.706;2024-02-16T05:34:42;15.98;;;4.60;;
32734;SDS011;19112;51.076;3.706;2024-02-16T05:37:07;14.20;;;4.60;;
32734;SDS011;19112;51.076;3.706;2024-02-16T05:39:38;12.85;;;4.75;;
32734;SDS011;19112;51.076;3.706;2024-02-16T05:42:34;15.77;;;4.60;;
32734;SDS011;19112;51.076;3.706;2024-02-16T05:45:01;13.82;;;4.72;;
32734;SDS011;19112;51.076;3.706;2024-02-16T05:47:30;11.68;;;4.50;;
32734;SDS011;19112;51.076;3.706;2024-02-16T05:49:59;12.77;;;4.50;;
32734;SDS011;19112;51.076;3.706;2024-02-16T05:52:28;14.32;;;5.18;;
32734;SDS011;19112;51.076;3.706;2024-02-16T05:54:56;15.25;;;4.90;;
32734;SDS011;19112;51.076;3.706;2024-02-16T05:57:23;18.30;;;5.05;;
32734;SDS011;19112;51.076;3.706;2024-02-16T05:59:49;13.43;;;4.85;;
32734;SDS011;19112;51.076;3.706;2024-02-16T06:02:17;14.80;;;4.82;;
32734;SDS011;19112;51.076;3.706;2024-02-16T06:04:43;15.25;;;5.13;;
32734;SDS011;19112;51.076;3.706;2024-02-16T06:07:09;14.23;;;4.75;;
32734;SDS011;19112;51.076;3.706;2024-02-16T06:09:36;15.40;;;5.10;;
32734;SDS011;19112;51.076;3.706;2024-02-16T06:12:06;14.48;;;5.03;;
32734;SDS011;19112;51.076;3.706;2024-02-16T06:14:34;18.70;;;5.32;;
32734;SDS011;19112;51.076;3.706;2024-02-16T06:17:02;19.20;;;6.30;;
32734;SDS011;19112;51.076;3.706;2024-02-16T06:19:28;12.40;;;4.85;;
32734;SDS011;19112;51.076;3.706;2024-02-16T06:21:54;18.38;;;5.22;;
32734;SDS011;19112;51.076;3.706;2024-02-16T06:24:21;15.15;;;5.20;;
32734;SDS011;19112;51.076;3.706;2024-02-16T06:26:49;13.85;;;4.72;;
32734;SDS011;19112;51.076;3.706;2024-02-16T06:29:18;14.82;;;4.90;;
32734;SDS011;19112;51.076;3.706;2024-02-16T06:31:47;18.65;;;5.20;;
32734;SDS011;19112;51.076;3.706;2024-02-16T06:34:13;13.02;;;4.93;;
32734;SDS011;19112;51.076;3.706;2024-02-16T06:36:40;15.48;;;4.60;;
32734;SDS011;19112;51.076;3.706;2024-02-16T06:39:07;12.32;;;4.78;;
32734;SDS011;19112;51.076;3.706;2024-02-16T06:41:34;15.25;;;4.85;;
32734;SDS011;19112;51.076;3.706;2024-02-16T06:44:00;15.07;;;4.93;;
32734;SDS011;19112;51.076;3.706;2024-02-16T06:46:25;15.38;;;4.70;;
32734;SDS011;19112;51.076;3.706;2024-02-16T06:48:54;13.77;;;4.72;;
32734;SDS011;19112;51.076;3.706;2024-02-16T06:51:24;13.15;;;4.70;;
32734;SDS011;19112;51.076;3.706;2024-02-16T06:53:52;16.33;;;5.10;;
32734;SDS011;19112;51.076;3.706;2024-02-16T06:56:19;14.25;;;4.88;;
32734;SDS011;19112;51.076;3.706;2024-02-16T06:58:45;13.25;;;5.00;;
32734;SDS011;19112;51.076;3.706;2024-02-16T07:01:14;14.98;;;5.50;;
32734;SDS011;19112;51.076;3.706;2024-02-16T07:03:43;15.00;;;5.30;;
32734;SDS011;19112;51.076;3.706;2024-02-16T07:06:09;14.88;;;5.45;;
32734;SDS011;19112;51.076;3.706;2024-02-16T07:08:42;18.10;;;5.32;;
32734;SDS011;19112;51.076;3.706;2024-02-16T07:11:12;18.77;;;5.35;;
32734;SDS011;19112;51.076;3.706;2024-02-16T07:13:44;14.52;;;5.57;;
32734;SDS011;19112;51.076;3.706;2024-02-16T07:16:11;15.25;;;5.35;;
32734;SDS011;19112;51.076;3.706;2024-02-16T07:18:37;14.63;;;5.18;;
32734;SDS011;19112;51.076;3.706;2024-02-16T07:21:04;16.38;;;5.53;;
32734;SDS011;19112;51.076;3.706;2024-02-16T07:23:30;16.00;;;5.22;;
32734;SDS011;19112;51.076;3.706;2024-02-16T07:25:57;14.20;;;4.90;;
32734;SDS011;19112;51.076;3.706;2024-02-16T07:28:25;15.50;;;4.80;;
32734;SDS011;19112;51.076;3.706;2024-02-16T07:30:51;16.92;;;4.80;;
32734;SDS011;19112;51.076;3.706;2024-02-16T07:33:19;15.50;;;5.10;;
32734;SDS011;19112;51.076;3.706;2024-02-16T07:35:46;17.30;;;5.30;;
32734;SDS011;19112;51.076;3.706;2024-02-16T07:38:12;21.00;;;5.60;;
32734;SDS011;19112;51.076;3.706;2024-02-16T07:40:39;12.73;;;4.72;;
32734;SDS011;19112;51.076;3.706;2024-02-16T07:43:06;15.25;;;4.57;;
32734;SDS011;19112;51.076;3.706;2024-02-16T07:45:33;14.68;;;5.15;;
32734;SDS011;19112;51.076;3.706;2024-02-16T07:47:59;14.15;;;5.03;;
32734;SDS011;19112;51.076;3.706;2024-02-16T07:50:31;17.33;;;4.80;;
32734;SDS011;19112;51.076;3.706;2024-02-16T07:52:57;13.48;;;5.15;;
32734;SDS011;19112;51.076;3.706;2024-02-16T07:55:23;14.10;;;4.93;;
32734;SDS011;19112;51.076;3.706;2024-02-16T07:57:50;13.68;;;4.95;;
32734;SDS011;19112;51.076;3.706;2024-02-16T08:00:17;13.02;;;4.93;;
32734;SDS011;19112;51.076;3.706;2024-02-16T08:02:44;18.85;;;5.25;;
32734;SDS011;19112;51.076;3.706;2024-02-16T08:05:17;15.68;;;5.50;;
32734;SDS011;19112;51.076;3.706;2024-02-16T08:07:46;15.10;;;4.88;;
32734;SDS011;19112;51.076;3.706;2024-02-16T08:10:18;16.92;;;5.05;;
32734;SDS011;19112;51.076;3.706;2024-02-16T08:12:47;15.30;;;5.05;;
32734;SDS011;19112;51.076;3.706;2024-02-16T08:15:13;15.65;;;4.75;;
32734;SDS011;19112;51.076;3.706;2024-02-16T08:17:39;17.67;;;5.65;;
32734;SDS011;19112;51.076;3.706;2024-02-16T08:20:07;18.10;;;5.43;;
32734;SDS011;19112;51.076;3.706;2024-02-16T08:22:35;15.75;;;5.10;;
32734;SDS011;19112;51.076;3.706;2024-02-16T08:25:02;14.65;;;5.57;;
32734;SDS011;19112;51.076;3.706;2024-02-16T08:27:30;15.48;;;5.38;;
32734;SDS011;19112;51.076;3.706;2024-02-16T08:29:57;16.38;;;6.07;;
32734;SDS011;19112;51.076;3.706;2024-02-16T08:32:23;17.38;;;5.30;;
32734;SDS011;19112;51.076;3.706;2024-02-16T08:34:49;20.33;;;5.68;;
32734;SDS011;19112;51.076;3.706;2024-02-16T08:37:15;17.30;;;5.13;;
32734;SDS011;19112;51.076;3.706;2024-02-16T08:39:42;18.35;;;5.88;;
32734;SDS011;19112;51.076;3.706;2024-02-16T08:42:08;13.35;;;5.15;;
32734;SDS011;19112;51.076;3.706;2024-02-16T08:44:34;17.77;;;5.45;;
32734;SDS011;19112;51.076;3.706;2024-02-16T08:47:02;18.30;;;6.03;;
32734;SDS011;19112;51.076;3.706;2024-02-16T08:49:29;17.48;;;6.45;;
32734;SDS011;19112;51.076;3.706;2024-02-16T08:51:56;17.15;;;5.80;;
32734;SDS011;19112;51.076;3.706;2024-02-16T08:54:31;21.73;;;5.75;;
32734;SDS011;19112;51.076;3.706;2024-02-16T08:56:58;15.45;;;5.18;;
32734;SDS011;19112;51.076;3.706;2024-02-16T08:59:26;17.02;;;5.40;;
32734;SDS011;19112;51.076;3.706;2024-02-16T09:04:26;24.63;;;6.35;;
32734;SDS011;19112;51.076;3.706;2024-02-16T09:06:52;20.13;;;6.38;;
32734;SDS011;19112;51.076;3.706;2024-02-16T09:09:18;19.98;;;6.85;;
32734;SDS011;19112;51.076;3.706;2024-02-16T09:11:45;20.48;;;7.07;;
32734;SDS011;19112;51.076;3.706;2024-02-16T09:14:11;19.30;;;5.82;;
32734;SDS011;19112;51.076;3.706;2024-02-16T09:16:37;17.02;;;6.35;;
32734;SDS011;19112;51.076;3.706;2024-02-16T09:19:03;23.75;;;7.28;;
32734;SDS011;19112;51.076;3.706;2024-02-16T09:21:35;21.17;;;7.75;;
32734;SDS011;19112;51.076;3.706;2024-02-16T09:24:01;20.47;;;6.43;;
32734;SDS011;19112;51.076;3.706;2024-02-16T09:26:28;18.55;;;6.75;;
32734;SDS011;19112;51.076;3.706;2024-02-16T09:28:59;19.33;;;6.60;;
32734;SDS011;19112;51.076;3.706;2024-02-16T09:31:27;20.02;;;7.78;;
32734;SDS011;19112;51.076;3.706;2024-02-16T09:33:53;22.10;;;7.47;;
32734;SDS011;19112;51.076;3.706;2024-02-16T09:36:22;21.83;;;8.05;;
32734;SDS011;19112;51.076;3.706;2024-02-16T09:38:50;18.70;;;7.13;;
32734;SDS011;19112;51.076;3.706;2024-02-16T09:41:17;21.15;;;7.15;;
32734;SDS011;19112;51.076;3.706;2024-02-16T09:43:43;24.58;;;7.60;;
32734;SDS011;19112;51.076;3.706;2024-02-16T09:46:09;27.08;;;8.27;;
32734;SDS011;19112;51.076;3.706;2024-02-16T09:48:35;26.42;;;8.60;;
32734;SDS011;19112;51.076;3.706;2024-02-16T09:51:03;23.52;;;7.93;;
32734;SDS011;19112;51.076;3.706;2024-02-16T09:55:58;22.33;;;8.10;;
32734;SDS011;19112;51.076;3.706;2024-02-16T10:00:56;25.70;;;9.18;;
32734;SDS011;19112;51.076;3.706;2024-02-16T10:03:29;23.67;;;8.18;;
32734;SDS011;19112;51.076;3.706;2024-02-16T10:06:06;28.40;;;8.85;;
32734;SDS011;19112;51.076;3.706;2024-02-16T10:08:57;25.63;;;8.52;;
32734;SDS011;19112;51.076;3.706;2024-02-16T10:11:25;22.05;;;8.90;;
32734;SDS011;19112;51.076;3.706;2024-02-16T10:16:30;24.90;;;8.98;;
32734;SDS011;19112;51.076;3.706;2024-02-16T10:19:07;23.92;;;8.55;;
32734;SDS011;19112;51.076;3.706;2024-02-16T10:21:37;23.77;;;9.63;;
32734;SDS011;19112;51.076;3.706;2024-02-16T10:24:08;24.33;;;9.50;;
32734;SDS011;19112;51.076;3.706;2024-02-16T10:26:35;22.30;;;10.13;;
32734;SDS011;19112;51.076;3.706;2024-02-16T10:29:05;25.00;;;9.75;;
32734;SDS011;19112;51.076;3.706;2024-02-16T10:31:34;23.90;;;9.15;;
32734;SDS011;19112;51.076;3.706;2024-02-16T10:36:31;24.55;;;10.05;;
32734;SDS011;19112;51.076;3.706;2024-02-16T10:39:01;26.55;;;11.02;;
32734;SDS011;19112;51.076;3.706;2024-02-16T10:41:35;28.20;;;11.00;;
32734;SDS011;19112;51.076;3.706;2024-02-16T10:44:04;30.30;;;11.55;;
32734;SDS011;19112;51.076;3.706;2024-02-16T10:46:32;28.80;;;11.35;;
32734;SDS011;19112;51.076;3.706;2024-02-16T10:49:00;29.65;;;12.45;;
32734;SDS011;19112;51.076;3.706;2024-02-16T10:51:37;28.67;;;12.90;;
32734;SDS011;19112;51.076;3.706;2024-02-16T10:54:10;30.15;;;13.85;;
32734;SDS011;19112;51.076;3.706;2024-02-16T10:56:40;34.70;;;15.05;;
32734;SDS011;19112;51.076;3.706;2024-02-16T10:59:09;30.13;;;14.05;;
32734;SDS011;19112;51.076;3.706;2024-02-16T11:01:39;35.20;;;13.38;;
32734;SDS011;19112;51.076;3.706;2024-02-16T11:04:17;28.33;;;13.73;;
32734;SDS011;19112;51.076;3.706;2024-02-16T11:06:54;29.83;;;14.27;;
32734;SDS011;19112;51.076;3.706;2024-02-16T11:09:34;27.60;;;13.40;;
32734;SDS011;19112;51.076;3.706;2024-02-16T11:12:03;26.08;;;12.57;;
32734;SDS011;19112;51.076;3.706;2024-02-16T11:14:43;27.67;;;12.65;;
32734;SDS011;19112;51.076;3.706;2024-02-16T11:17:14;26.33;;;11.77;;
32734;SDS011;19112;51.076;3.706;2024-02-16T11:19:50;25.55;;;10.32;;
32734;SDS011;19112;51.076;3.706;2024-02-16T11:27:20;22.65;;;9.70;;
32734;SDS011;19112;51.076;3.706;2024-02-16T11:29:48;22.45;;;9.73;;
32734;SDS011;19112;51.076;3.706;2024-02-16T11:32:14;22.58;;;9.07;;
32734;SDS011;19112;51.076;3.706;2024-02-16T11:34:41;22.67;;;8.68;;
32734;SDS011;19112;51.076;3.706;2024-02-16T11:37:08;23.02;;;8.60;;
32734;SDS011;19112;51.076;3.706;2024-02-16T11:39:34;21.33;;;8.63;;
32734;SDS011;19112;51.076;3.706;2024-02-16T11:42:06;20.77;;;9.25;;
32734;SDS011;19112;51.076;3.706;2024-02-16T11:44:35;19.67;;;7.32;;
32734;SDS011;19112;51.076;3.706;2024-02-16T11:47:06;18.42;;;7.80;;
32734;SDS011;19112;51.076;3.706;2024-02-16T11:49:41;17.00;;;7.07;;
32734;SDS011;19112;51.076;3.706;2024-02-16T11:52:07;18.13;;;7.05;;
32734;SDS011;19112;51.076;3.706;2024-02-16T11:57:03;19.13;;;7.22;;
32734;SDS011;19112;51.076;3.706;2024-02-16T11:59:30;18.00;;;7.40;;
32734;SDS011;19112;51.076;3.706;2024-02-16T12:01:58;17.15;;;6.75;;
32734;SDS011;19112;51.076;3.706;2024-02-16T12:04:27;15.88;;;6.53;;
32734;SDS011;19112;51.076;3.706;2024-02-16T12:06:59;17.55;;;7.47;;
32734;SDS011;19112;51.076;3.706;2024-02-16T12:09:28;17.52;;;7.03;;
32734;SDS011;19112;51.076;3.706;2024-02-16T12:11:56;16.70;;;6.82;;
32734;SDS011;19112;51.076;3.706;2024-02-16T12:14:23;16.30;;;6.07;;
32734;SDS011;19112;51.076;3.706;2024-02-16T12:16:51;15.88;;;6.18;;
32734;SDS011;19112;51.076;3.706;2024-02-16T12:19:22;14.35;;;5.68;;
32734;SDS011;19112;51.076;3.706;2024-02-16T12:21:52;13.98;;;5.60;;
32734;SDS011;19112;51.076;3.706;2024-02-16T12:24:21;13.82;;;5.80;;
32734;SDS011;19112;51.076;3.706;2024-02-16T12:26:48;12.93;;;5.28;;
32734;SDS011;19112;51.076;3.706;2024-02-16T12:29:17;11.80;;;5.30;;
32734;SDS011;19112;51.076;3.706;2024-02-16T12:31:44;14.00;;;5.60;;
32734;SDS011;19112;51.076;3.706;2024-02-16T12:34:13;13.55;;;4.95;;
32734;SDS011;19112;51.076;3.706;2024-02-16T12:36:41;12.38;;;5.00;;
32734;SDS011;19112;51.076;3.706;2024-02-16T12:39:07;12.98;;;5.22;;
32734;SDS011;19112;51.076;3.706;2024-02-16T12:41:38;11.80;;;5.00;;
32734;SDS011;19112;51.076;3.706;2024-02-16T12:44:07;10.70;;;4.88;;
32734;SDS011;19112;51.076;3.706;2024-02-16T12:46:33;14.63;;;5.13;;
32734;SDS011;19112;51.076;3.706;2024-02-16T12:51:29;16.60;;;5.00;;
32734;SDS011;19112;51.076;3.706;2024-02-16T12:53:55;9.80;;;4.47;;
32734;SDS011;19112;51.076;3.706;2024-02-16T12:56:22;11.80;;;4.85;;
32734;SDS011;19112;51.076;3.706;2024-02-16T12:58:49;12.98;;;5.00;;
32734;SDS011;19112;51.076;3.706;2024-02-16T13:01:15;10.27;;;4.30;;
32734;SDS011;19112;51.076;3.706;2024-02-16T13:03:43;10.25;;;4.78;;
32734;SDS011;19112;51.076;3.706;2024-02-16T13:06:10;10.57;;;4.47;;
32734;SDS011;19112;51.076;3.706;2024-02-16T13:08:37;11.55;;;4.03;;
32734;SDS011;19112;51.076;3.706;2024-02-16T13:11:06;12.93;;;4.57;;
32734;SDS011;19112;51.076;3.706;2024-02-16T13:13:35;14.32;;;4.47;;
32734;SDS011;19112;51.076;3.706;2024-02-16T13:16:02;8.68;;;4.65;;
32734;SDS011;19112;51.076;3.706;2024-02-16T13:18:29;12.63;;;5.20;;
32734;SDS011;19112;51.076;3.706;2024-02-16T13:20:55;14.40;;;5.00;;
32734;SDS011;19112;51.076;3.706;2024-02-16T13:23:22;13.25;;;5.03;;
32734;SDS011;19112;51.076;3.706;2024-02-16T13:25:50;13.60;;;5.03;;
32734;SDS011;19112;51.076;3.706;2024-02-16T13:28:16;12.85;;;4.97;;
32734;SDS011;19112;51.076;3.706;2024-02-16T13:30:43;11.55;;;5.18;;
32734;SDS011;19112;51.076;3.706;2024-02-16T13:33:10;14.95;;;5.55;;
32734;SDS011;19112;51.076;3.706;2024-02-16T13:35:37;12.38;;;4.82;;
32734;SDS011;19112;51.076;3.706;2024-02-16T13:38:04;13.13;;;5.10;;
32734;SDS011;19112;51.076;3.706;2024-02-16T13:40:36;13.70;;;5.50;;
32734;SDS011;19112;51.076;3.706;2024-02-16T13:43:03;11.48;;;4.68;;
32734;SDS011;19112;51.076;3.706;2024-02-16T13:45:30;8.90;;;4.28;;
32734;SDS011;19112;51.076;3.706;2024-02-16T13:48:21;7.65;;;3.50;;
32734;SDS011;19112;51.076;3.706;2024-02-16T13:50:47;8.88;;;3.25;;
32734;SDS011;19112;51.076;3.706;2024-02-16T13:53:13;9.00;;;3.13;;
32734;SDS011;19112;51.076;3.706;2024-02-16T13:55:43;9.25;;;3.22;;
32734;SDS011;19112;51.076;3.706;2024-02-16T13:58:11;10.82;;;3.35;;
32734;SDS011;19112;51.076;3.706;2024-02-16T14:03:08;7.15;;;3.20;;
32734;SDS011;19112;51.076;3.706;2024-02-16T14:05:37;8.27;;;3.63;;
32734;SDS011;19112;51.076;3.706;2024-02-16T14:08:06;14.52;;;4.65;;
32734;SDS011;19112;51.076;3.706;2024-02-16T14:10:39;9.27;;;3.53;;
32734;SDS011;19112;51.076;3.706;2024-02-16T14:13:06;12.23;;;4.35;;
32734;SDS011;19112;51.076;3.706;2024-02-16T14:15:35;9.15;;;3.72;;
32734;SDS011;19112;51.076;3.706;2024-02-16T14:18:01;9.68;;;4.32;;
32734;SDS011;19112;51.076;3.706;2024-02-16T14:20:30;12.07;;;4.07;;
32734;SDS011;19112;51.076;3.706;2024-02-16T14:22:55;11.32;;;4.13;;
32734;SDS011;19112;51.076;3.706;2024-02-16T14:25:22;10.85;;;4.13;;
32734;SDS011;19112;51.076;3.706;2024-02-16T14:27:50;9.55;;;4.30;;
32734;SDS011;19112;51.076;3.706;2024-02-16T14:30:16;10.32;;;3.80;;
32734;SDS011;19112;51.076;3.706;2024-02-16T14:32:43;10.25;;;4.30;;
32734;SDS011;19112;51.076;3.706;2024-02-16T14:35:09;13.48;;;4.63;;
32734;SDS011;19112;51.076;3.706;2024-02-16T14:40:05;13.75;;;4.90;;
32734;SDS011;19112;51.076;3.706;2024-02-16T14:42:36;18.30;;;4.95;;
32734;SDS011;19112;51.076;3.706;2024-02-16T14:45:04;11.80;;;4.90;;
32734;SDS011;19112;51.076;3.706;2024-02-16T14:47:34;14.88;;;5.40;;
32734;SDS011;19112;51.076;3.706;2024-02-16T14:50:02;10.18;;;4.30;;
32734;SDS011;19112;51.076;3.706;2024-02-16T14:52:30;10.27;;;4.65;;
32734;SDS011;19112;51.076;3.706;2024-02-16T14:54:56;13.82;;;5.20;;
32734;SDS011;19112;51.076;3.706;2024-02-16T14:57:22;15.43;;;4.63;;
32734;SDS011;19112;51.076;3.706;2024-02-16T14:59:51;13.45;;;5.20;;
32734;SDS011;19112;51.076;3.706;2024-02-16T15:02:23;12.48;;;5.22;;
32734;SDS011;19112;51.076;3.706;2024-02-16T15:04:51;12.63;;;4.95;;
32734;SDS011;19112;51.076;3.706;2024-02-16T15:07:18;12.43;;;5.40;;
32734;SDS011;19112;51.076;3.706;2024-02-16T15:09:44;14.43;;;4.82;;